createdAt,value
2018-01-29T00:01:52.280Z,79.36
2018-01-29T00:04:19.739Z,79.76
2018-01-29T00:06:47.263Z,80.10
2018-01-29T00:09:14.869Z,79.46
2018-01-29T00:11:42.379Z,79.69
2018-01-29T00:14:09.919Z,79.49
2018-01-29T00:16:37.410Z,79.77
2018-01-29T00:19:04.968Z,79.82
2018-01-29T00:21:32.516Z,79.67
2018-01-29T00:24:00.075Z,79.79
2018-01-29T00:26:27.578Z,80.14
2018-01-29T00:28:55.060Z,80.08
2018-01-29T00:31:22.572Z,80.03
2018-01-29T00:33:50.082Z,80.02
2018-01-29T00:36:17.587Z,79.71
2018-01-29T00:38:45.053Z,80.08
2018-01-29T00:41:12.630Z,79.66
2018-01-29T00:43:40.096Z,79.56
2018-01-29T00:46:07.590Z,79.44
2018-01-29T00:48:35.120Z,79.49
2018-01-29T00:51:02.606Z,79.25
2018-01-29T00:53:30.106Z,79.14
2018-01-29T00:55:57.583Z,79.28
2018-01-29T00:58:25.067Z,79.44
2018-01-29T01:00:52.559Z,79.71
2018-01-29T01:03:20.087Z,79.90
2018-01-29T01:05:47.562Z,80.51
2018-01-29T01:08:15.054Z,80.94
2018-01-29T01:10:42.557Z,81.43
2018-01-29T01:13:10.066Z,80.79
2018-01-29T01:15:37.554Z,80.38
2018-01-29T01:18:05.772Z,80.17
2018-01-29T01:20:33.325Z,79.97
2018-01-29T01:23:00.831Z,79.28
2018-01-29T01:25:28.440Z,79.47
2018-01-29T01:27:56.044Z,79.19
2018-01-29T01:30:23.552Z,79.20
2018-01-29T01:32:51.047Z,78.94
2018-01-29T01:35:18.550Z,78.74
2018-01-29T01:37:46.054Z,78.73
2018-01-29T01:40:13.580Z,78.03
2018-01-29T01:42:41.258Z,78.20
2018-01-29T01:45:08.806Z,78.00
2018-01-29T01:47:36.338Z,77.54
2018-01-29T01:50:03.856Z,77.16
2018-01-29T01:52:31.400Z,76.55
2018-01-29T01:54:58.932Z,76.19
2018-01-29T01:57:26.477Z,75.89
2018-01-29T01:59:54.025Z,75.79
2018-01-29T02:02:21.556Z,75.76
2018-01-29T02:04:49.059Z,75.35
2018-01-29T02:07:16.582Z,75.53
2018-01-29T02:09:44.161Z,74.98
2018-01-29T02:12:11.687Z,74.96
2018-01-29T02:14:39.207Z,74.57
2018-01-29T02:17:06.698Z,74.52
2018-01-29T02:19:34.219Z,74.77
2018-01-29T02:22:01.699Z,75.05
2018-01-29T02:24:29.211Z,75.02
2018-01-29T02:26:56.710Z,74.95
2018-01-29T02:29:24.229Z,75.38
2018-01-29T02:31:51.729Z,74.98
2018-01-29T02:34:19.248Z,75.33
2018-01-29T02:36:46.760Z,75.19
2018-01-29T02:39:14.375Z,75.21
2018-01-29T02:41:41.880Z,75.13
2018-01-29T02:44:09.378Z,75.22
2018-01-29T02:46:36.888Z,75.69
2018-01-29T02:49:04.389Z,75.81
2018-01-29T02:51:31.892Z,75.42
2018-01-29T02:53:59.379Z,75.43
2018-01-29T02:56:26.868Z,75.81
2018-01-29T02:58:54.358Z,76.18
2018-01-29T03:01:21.865Z,76.07
2018-01-29T03:03:49.403Z,75.71
2018-01-29T03:06:16.941Z,75.24
2018-01-29T03:08:44.454Z,75.31
2018-01-29T03:11:11.947Z,74.95
2018-01-29T03:13:39.443Z,75.14
2018-01-29T03:16:06.933Z,75.13
2018-01-29T03:18:34.422Z,75.25
2018-01-29T03:21:01.900Z,75.06
2018-01-29T03:23:29.407Z,74.80
2018-01-29T03:25:56.905Z,74.60
2018-01-29T03:28:24.395Z,74.41
2018-01-29T03:30:51.897Z,74.26
2018-01-29T03:33:19.387Z,74.37
2018-01-29T03:35:46.881Z,74.27
2018-01-29T03:38:14.373Z,74.05
2018-01-29T03:40:41.853Z,74.37
2018-01-29T03:43:09.364Z,74.07
2018-01-29T03:45:36.845Z,74.48
2018-01-29T03:48:04.334Z,74.53
2018-01-29T03:50:31.837Z,74.63
2018-01-29T03:52:59.338Z,74.58
2018-01-29T03:55:26.831Z,75.16
2018-01-29T03:57:54.338Z,74.98
2018-01-29T04:00:21.825Z,74.89
2018-01-29T04:02:49.339Z,75.52
2018-01-29T04:05:16.832Z,75.84
2018-01-29T04:07:44.326Z,75.55
2018-01-29T04:10:11.816Z,75.87
2018-01-29T04:12:39.315Z,76.01
2018-01-29T04:15:06.816Z,76.28
2018-01-29T04:17:34.327Z,76.39
2018-01-29T04:20:01.827Z,76.02
2018-01-29T04:22:29.310Z,75.98
2018-01-29T04:24:56.804Z,76.86
2018-01-29T04:27:24.319Z,76.98
2018-01-29T04:29:51.813Z,76.79
2018-01-29T04:32:19.315Z,76.99
2018-01-29T04:34:46.806Z,76.64
2018-01-29T04:37:14.358Z,76.50
2018-01-29T04:39:41.851Z,76.83
2018-01-29T04:42:09.338Z,76.88
2018-01-29T04:44:36.841Z,76.89
2018-01-29T04:47:04.326Z,76.52
2018-01-29T04:49:31.821Z,76.57
2018-01-29T04:51:59.324Z,76.38
2018-01-29T04:54:26.817Z,76.20
2018-01-29T04:56:54.316Z,76.08
2018-01-29T04:59:21.825Z,75.87
2018-01-29T05:01:49.295Z,76.08
2018-01-29T05:04:16.802Z,76.25
2018-01-29T05:06:44.328Z,76.58
2018-01-29T05:09:11.812Z,76.26
2018-01-29T05:11:39.304Z,76.49
2018-01-29T05:14:06.801Z,76.41
2018-01-29T05:16:34.295Z,76.32
2018-01-29T05:19:01.770Z,76.60
2018-01-29T05:21:29.396Z,76.76
2018-01-29T05:23:56.888Z,76.73
2018-01-29T05:26:24.366Z,76.80
2018-01-29T05:28:51.868Z,76.46
2018-01-29T05:31:19.402Z,76.44
2018-01-29T05:33:46.892Z,76.99
2018-01-29T05:39:19.344Z,76.67
2018-01-29T05:41:46.840Z,76.37
2018-01-29T05:44:14.357Z,76.34
2018-01-29T05:46:41.868Z,76.70
2018-01-29T05:49:09.370Z,76.58
2018-01-29T05:51:36.874Z,77.00
2018-01-29T05:54:04.378Z,77.05
2018-01-29T05:56:31.912Z,77.21
2018-01-29T05:58:59.396Z,77.21
2018-01-29T06:01:26.886Z,77.09
2018-01-29T06:03:54.396Z,77.26
2018-01-29T06:06:21.896Z,77.38
2018-01-29T06:08:49.391Z,77.27
2018-01-29T06:11:16.889Z,77.09
2018-01-29T06:13:44.378Z,76.76
2018-01-29T06:16:11.888Z,77.17
2018-01-29T06:18:39.371Z,76.74
2018-01-29T06:21:06.864Z,76.72
2018-01-29T06:23:34.343Z,76.78
2018-01-29T06:26:01.841Z,76.76
2018-01-29T06:28:29.341Z,77.12
2018-01-29T06:30:56.848Z,76.56
2018-01-29T06:33:24.354Z,76.53
2018-01-29T06:35:51.837Z,76.08
2018-01-29T06:38:19.365Z,76.02
2018-01-29T06:40:46.853Z,75.69
2018-01-29T06:43:14.330Z,75.62
2018-01-29T06:45:41.860Z,76.15
2018-01-29T06:48:09.343Z,76.12
2018-01-29T06:50:36.824Z,76.04
2018-01-29T06:53:04.339Z,75.96
2018-01-29T06:55:31.831Z,75.83
2018-01-29T06:57:59.336Z,75.83
2018-01-29T07:00:26.854Z,75.57
2018-01-29T07:02:57.379Z,76.06
2018-01-29T07:05:24.884Z,75.94
2018-01-29T07:07:52.427Z,75.93
2018-01-29T07:10:20.227Z,76.64
2018-01-29T07:12:50.788Z,76.79
2018-01-29T07:15:18.301Z,76.87
2018-01-29T07:17:45.796Z,76.89
2018-01-29T07:20:13.318Z,76.65
2018-01-29T07:22:40.802Z,76.96
2018-01-29T07:25:08.312Z,77.03
2018-01-29T07:27:35.827Z,76.88
2018-01-29T07:30:03.343Z,77.22
2018-01-29T07:32:30.839Z,77.10
2018-01-29T07:34:58.361Z,76.98
2018-01-29T07:37:25.863Z,77.00
2018-01-29T07:39:53.376Z,77.48
2018-01-29T07:42:20.917Z,77.28
2018-01-29T07:44:48.477Z,77.61
2018-01-29T07:47:15.967Z,78.12
2018-01-29T07:49:43.483Z,78.05
2018-01-29T07:52:11.135Z,77.86
2018-01-29T07:54:38.652Z,77.86
2018-01-29T07:57:06.185Z,78.36
2018-01-29T07:59:33.718Z,78.15
2018-01-29T08:02:01.786Z,78.06
2018-01-29T08:04:29.300Z,77.75
2018-01-29T08:07:00.055Z,77.70
2018-01-29T08:09:32.026Z,77.73
2018-01-29T08:11:59.560Z,77.89
2018-01-29T08:14:27.083Z,77.91
2018-01-29T08:16:54.570Z,78.01
2018-01-29T08:19:22.174Z,78.35
2018-01-29T08:21:49.676Z,78.16
2018-01-29T08:24:17.176Z,78.09
2018-01-29T08:26:44.712Z,78.11
2018-01-29T08:29:12.199Z,78.16
2018-01-29T08:31:39.881Z,78.52
2018-01-29T08:34:07.574Z,78.33
2018-01-29T08:36:35.079Z,78.49
2018-01-29T08:39:02.566Z,78.44
2018-01-29T08:41:30.063Z,78.24
2018-01-29T08:43:57.555Z,78.30
2018-01-29T08:46:25.130Z,78.23
2018-01-29T08:48:52.655Z,78.76
2018-01-29T08:51:21.009Z,78.72
2018-01-29T08:53:48.512Z,78.93
2018-01-29T08:56:16.015Z,78.93
2018-01-29T08:58:43.541Z,78.83
2018-01-29T09:01:11.036Z,78.87
2018-01-29T09:03:38.532Z,78.85
2018-01-29T09:06:06.043Z,78.60
2018-01-29T09:08:33.559Z,78.61
2018-01-29T09:11:01.067Z,78.56
2018-01-29T09:13:28.587Z,78.80
2018-01-29T09:15:56.142Z,78.67
2018-01-29T09:18:23.661Z,78.79
2018-01-29T09:20:51.204Z,78.71
2018-01-29T09:23:18.720Z,78.61
2018-01-29T09:25:46.232Z,78.30
2018-01-29T09:28:13.724Z,78.77
2018-01-29T09:30:41.252Z,78.84
2018-01-29T09:33:08.744Z,78.74
2018-01-29T09:35:36.304Z,78.67
2018-01-29T09:38:03.841Z,78.61
2018-01-29T09:40:31.356Z,79.01
2018-01-29T09:42:58.874Z,78.79
2018-01-29T09:45:26.387Z,79.17
2018-01-29T09:47:53.891Z,78.90
2018-01-29T09:50:21.415Z,78.63
2018-01-29T09:52:48.903Z,78.85
2018-01-29T09:55:16.438Z,78.95
2018-01-29T09:57:43.957Z,79.09
2018-01-29T10:00:11.456Z,79.15
2018-01-29T10:02:38.945Z,78.98
2018-01-29T10:05:06.464Z,78.95
2018-01-29T10:07:33.948Z,79.41
2018-01-29T10:10:01.471Z,79.63
2018-01-29T10:12:28.973Z,79.56
2018-01-29T10:14:56.469Z,79.51
2018-01-29T10:17:23.965Z,79.95
2018-01-29T10:19:51.458Z,80.18
2018-01-29T10:22:18.975Z,80.02
2018-01-29T10:24:46.462Z,79.67
2018-01-29T10:27:13.976Z,79.25
2018-01-29T10:29:41.523Z,79.36
2018-01-29T10:32:09.037Z,79.49
2018-01-29T10:34:36.570Z,79.58
2018-01-29T10:37:04.141Z,79.55
2018-01-29T10:39:31.649Z,79.49
2018-01-29T10:41:59.145Z,79.43
2018-01-29T10:44:26.631Z,79.83
2018-01-29T10:46:54.125Z,79.64
2018-01-29T10:49:21.655Z,80.22
2018-01-29T10:51:49.141Z,80.24
2018-01-29T10:54:16.627Z,80.62
2018-01-29T10:56:44.118Z,81.35
2018-01-29T10:59:11.611Z,82.22
2018-01-29T11:01:44.585Z,82.74
2018-01-29T11:04:12.092Z,82.58
2018-01-29T11:06:39.638Z,82.86
2018-01-29T11:09:07.117Z,82.79
2018-01-29T11:11:34.611Z,83.50
2018-01-29T11:14:02.121Z,83.70
2018-01-29T11:16:29.610Z,83.52
2018-01-29T11:18:57.087Z,83.78
2018-01-29T11:21:24.598Z,83.43
2018-01-29T11:23:52.083Z,83.04
2018-01-29T11:26:19.632Z,83.02
2018-01-29T11:28:47.123Z,83.43
2018-01-29T11:31:14.620Z,83.55
2018-01-29T11:33:42.143Z,83.60
2018-01-29T11:36:09.643Z,84.06
2018-01-29T11:38:37.156Z,84.30
2018-01-29T11:41:04.663Z,84.29
2018-01-29T11:43:32.175Z,83.79
2018-01-29T11:45:59.672Z,83.54
2018-01-29T11:48:27.188Z,83.55
2018-01-29T11:50:54.707Z,83.47
2018-01-29T11:53:22.224Z,83.90
2018-01-29T11:55:49.768Z,84.08
2018-01-29T11:58:17.277Z,84.26
2018-01-29T12:00:44.797Z,84.10
2018-01-29T12:03:12.287Z,83.91
2018-01-29T12:05:39.779Z,83.80
2018-01-29T12:08:07.254Z,83.60
2018-01-29T12:10:34.772Z,83.18
2018-01-29T12:13:02.275Z,83.33
2018-01-29T12:15:29.787Z,82.53
2018-01-29T12:17:57.265Z,81.72
2018-01-29T12:20:25.035Z,81.71
2018-01-29T12:22:52.548Z,81.47
2018-01-29T12:25:20.070Z,81.08
2018-01-29T12:27:47.580Z,80.57
2018-01-29T12:30:15.088Z,80.02
2018-01-29T12:32:42.591Z,79.64
2018-01-29T12:35:10.089Z,79.37
2018-01-29T12:37:37.599Z,79.35
2018-01-29T12:40:05.072Z,78.87
2018-01-29T12:42:32.577Z,78.58
2018-01-29T12:45:00.202Z,78.20
2018-01-29T12:47:27.674Z,77.72
2018-01-29T12:49:55.148Z,76.88
2018-01-29T12:52:22.654Z,76.29
2018-01-29T12:54:50.129Z,75.57
2018-01-29T12:57:17.639Z,75.36
2018-01-29T12:59:45.133Z,75.04
2018-01-29T13:02:12.638Z,74.83
2018-01-29T13:04:40.135Z,74.87
2018-01-29T13:07:07.635Z,74.45
2018-01-29T13:09:35.174Z,74.24
2018-01-29T13:12:02.711Z,73.91
2018-01-29T13:14:30.210Z,73.74
2018-01-29T13:16:57.686Z,73.71
2018-01-29T13:19:25.190Z,73.61
2018-01-29T13:21:52.701Z,73.41
2018-01-29T13:24:20.275Z,73.24
2018-01-29T13:26:47.826Z,72.77
2018-01-29T13:29:15.344Z,72.82
2018-01-29T13:31:42.865Z,72.91
2018-01-29T13:34:10.353Z,72.54
2018-01-29T13:36:37.859Z,72.27
2018-01-29T13:39:05.420Z,72.14
2018-01-29T13:41:32.942Z,72.17
2018-01-29T13:44:00.418Z,72.32
2018-01-29T13:46:27.943Z,72.41
2018-01-29T13:48:55.435Z,72.05
2018-01-29T13:51:22.963Z,72.10
2018-01-29T13:53:50.447Z,72.07
2018-01-29T13:56:17.930Z,71.88
2018-01-29T13:58:45.455Z,72.09
2018-01-29T14:01:12.951Z,71.85
2018-01-29T14:03:40.450Z,71.73
2018-01-29T14:06:07.966Z,71.87
2018-01-29T14:08:35.471Z,71.07
2018-01-29T14:11:02.950Z,71.13
2018-01-29T14:13:30.431Z,70.96
2018-01-29T14:15:57.921Z,71.37
2018-01-29T14:18:25.404Z,71.34
2018-01-29T14:20:52.902Z,71.11
2018-01-29T14:23:20.418Z,71.06
2018-01-29T14:25:47.971Z,70.92
2018-01-29T14:28:15.402Z,70.50
2018-01-29T14:30:42.919Z,70.25
2018-01-29T14:33:10.406Z,69.85
2018-01-29T14:35:37.903Z,69.79
2018-01-29T14:38:05.411Z,69.17
2018-01-29T14:40:32.925Z,69.14
2018-01-29T14:43:00.404Z,68.66
2018-01-29T14:45:27.905Z,68.65
2018-01-29T14:47:55.406Z,69.00
2018-01-29T14:50:22.884Z,68.75
2018-01-29T14:52:50.370Z,68.34
2018-01-29T14:55:17.857Z,67.72
2018-01-29T14:57:45.351Z,67.21
2018-01-29T15:00:12.834Z,67.25
2018-01-29T15:02:40.330Z,66.91
2018-01-29T15:05:07.807Z,66.71
2018-01-29T15:07:35.314Z,66.38
2018-01-29T15:10:02.832Z,66.36
2018-01-29T15:12:30.358Z,66.10
2018-01-29T15:14:57.839Z,65.90
2018-01-29T15:17:25.318Z,65.92
2018-01-29T15:19:52.812Z,65.74
2018-01-29T15:22:20.296Z,65.69
2018-01-29T15:24:47.814Z,65.75
2018-01-29T15:27:15.323Z,65.79
2018-01-29T15:29:42.803Z,65.78
2018-01-29T15:32:10.291Z,65.72
2018-01-29T15:34:37.784Z,65.74
2018-01-29T15:37:05.280Z,65.54
2018-01-29T15:39:32.758Z,65.52
2018-01-29T15:42:00.255Z,65.46
2018-01-29T15:44:27.743Z,65.09
2018-01-29T15:46:55.236Z,65.40
2018-01-29T15:49:22.742Z,65.60
2018-01-29T15:51:50.233Z,65.46
2018-01-29T15:54:17.722Z,65.49
2018-01-29T15:56:45.216Z,65.50
2018-01-29T15:59:12.715Z,65.59
2018-01-29T16:01:40.203Z,65.34
2018-01-29T16:04:07.759Z,65.36
2018-01-29T16:06:35.285Z,65.35
2018-01-29T16:09:02.822Z,65.12
2018-01-29T16:11:30.296Z,65.23
2018-01-29T16:13:57.774Z,65.46
2018-01-29T16:16:25.270Z,65.60
2018-01-29T16:18:52.763Z,65.77
2018-01-29T16:21:20.260Z,65.95
2018-01-29T16:23:47.759Z,66.12
2018-01-29T16:26:15.258Z,66.34
2018-01-29T16:28:42.803Z,66.62
2018-01-29T16:31:10.304Z,66.96
2018-01-29T16:33:37.792Z,67.12
2018-01-29T16:36:05.307Z,67.40
2018-01-29T16:38:32.809Z,67.79
2018-01-29T16:41:00.333Z,67.89
2018-01-29T16:43:27.827Z,68.03
2018-01-29T16:45:55.310Z,68.26
2018-01-29T16:48:22.806Z,68.45
2018-01-29T16:50:50.405Z,68.53
2018-01-29T16:53:17.897Z,68.58
2018-01-29T16:55:45.400Z,68.73
2018-01-29T16:58:12.922Z,68.67
2018-01-29T17:00:40.435Z,68.62
2018-01-29T17:03:07.943Z,68.30
2018-01-29T17:05:35.448Z,68.19
2018-01-29T17:08:03.027Z,68.01
2018-01-29T17:10:30.538Z,67.71
2018-01-29T17:12:58.031Z,67.46
2018-01-29T17:15:25.535Z,67.32
2018-01-29T17:17:53.026Z,66.91
2018-01-29T17:20:20.583Z,66.71
2018-01-29T17:22:48.075Z,66.57
2018-01-29T17:25:15.586Z,66.46
2018-01-29T17:27:43.099Z,66.44
2018-01-29T17:30:10.645Z,66.38
2018-01-29T17:32:38.159Z,66.38
2018-01-29T17:35:05.658Z,66.36
2018-01-29T17:37:33.280Z,66.17
2018-01-29T17:40:00.782Z,66.20
2018-01-29T17:42:28.285Z,66.26
2018-01-29T17:44:55.815Z,66.29
2018-01-29T17:47:23.337Z,66.37
2018-01-29T17:49:50.835Z,66.47
2018-01-29T17:52:18.427Z,66.54
2018-01-29T17:54:45.944Z,66.58
2018-01-29T17:57:13.453Z,66.66
2018-01-29T17:59:40.955Z,66.68
2018-01-29T18:02:08.499Z,67.03
2018-01-29T18:04:36.011Z,67.18
2018-01-29T18:07:03.547Z,67.34
2018-01-29T18:09:31.043Z,67.40
2018-01-29T18:11:58.518Z,67.45
2018-01-29T18:14:26.054Z,67.43
2018-01-29T18:16:53.547Z,67.68
2018-01-29T18:19:21.050Z,67.79
2018-01-29T18:21:48.564Z,67.91
2018-01-29T18:24:16.071Z,67.90
2018-01-29T18:26:43.584Z,67.82
2018-01-29T18:29:11.071Z,67.76
2018-01-29T18:31:38.568Z,67.99
2018-01-29T18:34:06.140Z,68.15
2018-01-29T18:36:33.646Z,68.26
2018-01-29T18:39:01.159Z,68.20
2018-01-29T18:41:28.678Z,68.19
2018-01-29T18:43:56.276Z,68.14
2018-01-29T18:46:23.784Z,68.23
2018-01-29T18:48:51.314Z,68.44
2018-01-29T18:51:18.815Z,68.51
2018-01-29T18:53:46.328Z,68.59
2018-01-29T18:56:13.834Z,68.61
2018-01-29T18:58:41.344Z,68.68
2018-01-29T19:01:08.847Z,68.66
2018-01-29T19:03:36.448Z,68.95
2018-01-29T19:06:04.123Z,68.93
2018-01-29T19:08:31.611Z,68.88
2018-01-29T19:10:59.173Z,68.85
2018-01-29T19:13:26.687Z,68.83
2018-01-29T19:15:54.225Z,68.99
2018-01-29T19:18:21.714Z,69.27
2018-01-29T19:20:49.230Z,69.22
2018-01-29T19:23:16.717Z,69.17
2018-01-29T19:25:44.220Z,69.11
2018-01-29T19:28:11.738Z,69.42
2018-01-29T19:30:39.259Z,69.40
2018-01-29T19:33:06.762Z,69.36
2018-01-29T19:35:34.251Z,69.12
2018-01-29T19:38:01.791Z,69.34
2018-01-29T19:40:29.289Z,69.38
2018-01-29T19:42:56.810Z,69.37
2018-01-29T19:45:24.287Z,69.33
2018-01-29T19:47:51.827Z,69.42
2018-01-29T19:50:19.320Z,69.50
2018-01-29T19:52:46.826Z,69.39
2018-01-29T19:55:14.331Z,69.35
2018-01-29T19:57:41.812Z,69.46
2018-01-29T20:00:09.308Z,69.50
2018-01-29T20:02:36.812Z,69.47
2018-01-29T20:05:04.326Z,69.50
2018-01-29T20:07:31.887Z,69.48
2018-01-29T20:09:59.369Z,69.57
2018-01-29T20:12:26.879Z,69.63
2018-01-29T20:14:54.355Z,69.64
2018-01-29T20:17:21.840Z,69.64
2018-01-29T20:19:49.357Z,69.59
2018-01-29T20:22:16.839Z,69.76
2018-01-29T20:24:44.341Z,69.71
2018-01-29T20:27:11.855Z,69.69
2018-01-29T20:29:39.363Z,69.75
2018-01-29T20:32:06.858Z,69.71
2018-01-29T20:34:34.419Z,69.60
2018-01-29T20:37:02.027Z,69.75
2018-01-29T20:39:29.543Z,69.72
2018-01-29T20:41:57.028Z,69.60
2018-01-29T20:44:24.550Z,69.39
2018-01-29T20:46:52.044Z,69.54
2018-01-29T20:49:19.524Z,69.67
2018-01-29T20:51:47.027Z,69.65
2018-01-29T20:54:14.545Z,69.64
2018-01-29T20:56:42.164Z,69.67
2018-01-29T20:59:09.690Z,69.68
2018-01-29T21:01:37.171Z,69.58
2018-01-29T21:04:04.651Z,69.62
2018-01-29T21:06:32.130Z,69.46
2018-01-29T21:09:00.056Z,69.44
2018-01-29T21:11:27.535Z,69.39
2018-01-29T21:13:55.039Z,69.44
2018-01-29T21:16:22.522Z,69.47
2018-01-29T21:18:50.007Z,69.45
2018-01-29T21:21:17.467Z,69.52
2018-01-29T21:23:44.999Z,69.68
2018-01-29T21:26:12.483Z,69.69
2018-01-29T21:28:39.962Z,69.69
2018-01-29T21:31:07.486Z,69.51
2018-01-29T21:33:34.996Z,69.45
2018-01-29T21:36:02.488Z,69.26
2018-01-29T21:38:30.035Z,69.11
2018-01-29T21:40:57.539Z,69.08
2018-01-29T21:43:25.114Z,69.13
2018-01-29T21:45:52.627Z,69.12
2018-01-29T21:48:20.115Z,69.20
2018-01-29T21:50:47.627Z,69.24
2018-01-29T21:53:15.125Z,69.21
2018-01-29T21:55:42.659Z,69.25
2018-01-29T21:58:10.144Z,69.31
2018-01-29T22:00:37.665Z,69.34
2018-01-29T22:03:05.160Z,69.36
2018-01-29T22:05:32.692Z,69.59
2018-01-29T22:08:00.233Z,69.68
2018-01-29T22:10:27.757Z,69.67
2018-01-29T22:12:55.264Z,69.59
2018-01-29T22:15:22.823Z,69.66
2018-01-29T22:17:50.323Z,69.71
2018-01-29T22:20:17.825Z,69.63
2018-01-29T22:22:45.347Z,69.58
2018-01-29T22:25:12.851Z,69.58
2018-01-29T22:27:40.336Z,69.58
2018-01-29T22:30:07.840Z,69.62
2018-01-29T22:32:35.327Z,69.62
2018-01-29T22:35:02.845Z,69.66
2018-01-29T22:37:30.350Z,69.76
2018-01-29T22:39:57.898Z,69.78
2018-01-29T22:42:25.373Z,69.87
2018-01-29T22:44:52.856Z,69.86
2018-01-29T22:47:20.389Z,69.74
2018-01-29T22:49:47.870Z,69.80
2018-01-29T22:52:15.367Z,69.86
2018-01-29T22:54:42.851Z,69.87
2018-01-29T22:57:10.413Z,69.83
2018-01-29T22:59:37.905Z,69.83
2018-01-29T23:02:05.424Z,69.87
2018-01-29T23:04:32.941Z,69.88
2018-01-29T23:07:00.438Z,69.90
2018-01-29T23:09:27.955Z,69.93
2018-01-29T23:11:55.450Z,69.87
2018-01-29T23:14:22.927Z,69.86
2018-01-29T23:16:50.428Z,69.86
2018-01-29T23:19:17.941Z,69.90
2018-01-29T23:21:45.432Z,69.90
2018-01-29T23:24:12.939Z,69.85
2018-01-29T23:26:40.418Z,69.85
2018-01-29T23:29:07.899Z,69.85
2018-01-29T23:31:35.395Z,69.94
2018-01-29T23:34:02.887Z,70.03
2018-01-29T23:36:30.368Z,70.01
2018-01-29T23:38:57.888Z,70.04
2018-01-29T23:41:25.455Z,70.07
2018-01-29T23:43:52.939Z,70.14
2018-01-29T23:46:20.444Z,70.08
2018-01-29T23:48:47.927Z,70.37
2018-01-29T23:51:15.409Z,70.61
2018-01-29T23:53:42.904Z,70.50
2018-01-29T23:56:10.378Z,70.37
2018-01-29T23:58:37.867Z,70.26
